Time;durP1;ratioP1;P1;durP2;ratioP2;P2;SDS_P1;SDS_P2;PMS_P1;PMS_P2;Temp;Humidity;BMP_temperature;BMP_pressure;BME280_temperature;BME280_humidity;BME280_pressure;Samples;Min_cycle;Max_cycle;Signal;HPM_P1;HPM_P2
2023/04/20 00:00:14;;;;;;;50.80;6.10;;;;;;;8.18;100.00;100638.36;105913;1253;74238;-51
2023/04/20 00:02:44;;;;;;;38.60;5.10;;;;;;;8.18;100.00;100631.84;105940;1254;62290;-52
2023/04/20 00:05:12;;;;;;;40.20;4.50;;;;;;;8.18;100.00;100629.77;105998;1255;61606;-53
2023/04/20 00:07:41;;;;;;;38.80;5.20;;;;;;;8.18;100.00;100622.71;105921;1254;73545;-51
2023/04/20 00:10:10;;;;;;;29.60;5.70;;;;;;;8.18;100.00;100617.40;105922;1257;66016;-51
2023/04/20 00:12:41;;;;;;;36.10;4.40;;;;;;;8.17;100.00;100616.36;105872;1254;73793;-51
2023/04/20 00:15:09;;;;;;;31.40;5.00;;;;;;;8.18;100.00;100608.45;105887;1257;62329;-50
2023/04/20 00:17:38;;;;;;;22.70;3.60;;;;;;;8.18;100.00;100612.92;105946;1253;59588;-52
2023/04/20 00:20:08;;;;;;;41.20;5.30;;;;;;;8.18;100.00;100610.17;105917;1253;73294;-50
2023/04/20 00:22:37;;;;;;;32.20;4.70;;;;;;;8.18;100.00;100606.73;105888;1254;66816;-52
2023/04/20 00:25:06;;;;;;;44.30;4.60;;;;;;;8.18;100.00;100604.66;105931;1254;74222;-53
2023/04/20 00:27:35;;;;;;;32.30;4.00;;;;;;;8.18;100.00;100603.13;105914;1256;63479;-51
2023/04/20 00:30:04;;;;;;;40.40;4.70;;;;;;;8.17;100.00;100604.85;105937;1253;61589;-51
2023/04/20 00:32:32;;;;;;;38.70;4.90;;;;;;;8.17;100.00;100601.77;105914;1256;75062;-50
2023/04/20 00:35:01;;;;;;;30.40;4.70;;;;;;;8.17;100.00;100605.02;105923;1256;66236;-50
2023/04/20 00:37:29;;;;;;;30.70;4.50;;;;;;;8.17;100.00;100610.17;105862;1254;74285;-52
2023/04/20 00:39:58;;;;;;;38.90;5.10;;;;;;;8.17;100.00;100609.66;105915;1254;63392;-53
2023/04/20 00:42:26;;;;;;;40.00;5.30;;;;;;;8.16;100.00;100605.20;105923;1252;61570;-52
2023/04/20 00:44:54;;;;;;;29.20;4.70;;;;;;;8.17;100.00;100604.52;105916;1254;75097;-49
2023/04/20 00:47:24;;;;;;;32.90;4.10;;;;;;;8.17;100.00;100603.98;105874;1253;65933;-51
2023/04/20 00:49:52;;;;;;;41.80;4.70;;;;;;;8.18;100.00;100600.88;105908;1254;74103;-52
2023/04/20 00:52:21;;;;;;;37.70;5.90;;;;;;;8.18;100.00;100594.19;105702;1257;63213;-51
2023/04/20 00:54:50;;;;;;;42.80;4.60;;;;;;;8.18;100.00;100590.92;105952;1254;61569;-50
2023/04/20 00:57:22;;;;;;;29.70;4.50;;;;;;;8.18;100.00;100580.60;105899;1253;75501;-52
2023/04/20 00:59:51;;;;;;;30.90;4.80;;;;;;;8.18;100.00;100574.76;105926;1256;65991;-51
2023/04/20 01:02:22;;;;;;;37.50;5.00;;;;;;;8.17;100.00;100573.56;105953;1254;73986;-51
2023/04/20 01:04:51;;;;;;;40.70;4.50;;;;;;;8.16;100.00;100561.36;105925;1253;63332;-51
2023/04/20 01:07:19;;;;;;;27.00;4.30;;;;;;;8.15;100.00;100559.13;105925;1252;61784;-50
2023/04/20 01:09:49;;;;;;;37.40;5.00;;;;;;;8.14;100.00;100561.21;105902;1256;74631;-51
2023/04/20 01:12:18;;;;;;;30.70;4.00;;;;;;;8.12;100.00;100558.99;105938;1254;66050;-52
2023/04/20 01:14:46;;;;;;;38.30;5.20;;;;;;;8.10;100.00;100557.98;105921;1254;73836;-52
2023/04/20 01:17:14;;;;;;;41.20;4.50;;;;;;;8.07;100.00;100551.97;105892;1256;63290;-53
2023/04/20 01:19:45;;;;;;;29.80;4.40;;;;;;;8.06;100.00;100546.13;105945;1253;61735;-52
2023/04/20 01:22:17;;;;;;;41.30;5.20;;;;;;;8.03;100.00;100537.38;105913;1253;75040;-52
2023/04/20 01:24:46;;;;;;;31.80;5.20;;;;;;;8.03;100.00;100528.63;105930;1253;66130;-50
2023/04/20 01:27:15;;;;;;;33.10;5.50;;;;;;;8.03;100.00;100516.95;105920;1254;73962;-52
2023/04/20 01:29:44;;;;;;;39.80;5.60;;;;;;;8.01;100.00;100511.80;105892;1256;63289;-52
2023/04/20 01:32:13;;;;;;;41.90;4.80;;;;;;;8.00;100.00;100503.04;105933;1254;61611;-52
2023/04/20 01:34:41;;;;;;;33.90;5.50;;;;;;;7.97;100.00;100496.19;105899;1256;75069;-52
2023/04/20 01:37:10;;;;;;;38.70;6.00;;;;;;;7.95;100.00;100487.08;105871;1256;65952;-52
2023/04/20 01:39:39;;;;;;;33.00;5.30;;;;;;;7.92;100.00;100478.86;105908;1252;74241;-58
2023/04/20 01:42:08;;;;;;;40.90;5.30;;;;;;;7.91;100.00;100469.05;105769;1257;63507;-55
2023/04/20 01:44:38;;;;;;;43.00;5.20;;;;;;;7.87;100.00;100457.41;105652;1255;61708;-53
2023/04/20 01:47:06;;;;;;;31.30;4.70;;;;;;;7.85;100.00;100439.05;105807;1256;74038;-53
2023/04/20 01:49:34;;;;;;;31.00;5.10;;;;;;;7.82;100.00;100423.77;105965;1256;66196;-50
2023/04/20 01:52:03;;;;;;;20.80;5.10;;;;;;;7.79;100.00;100416.59;105936;1254;74251;-56
2023/04/20 01:54:31;;;;;;;27.50;4.70;;;;;;;7.77;100.00;100411.79;105904;1257;62333;-53
2023/04/20 01:57:02;;;;;;;35.90;5.60;;;;;;;7.75;100.00;100405.27;105914;1254;61587;-53
2023/04/20 01:59:31;;;;;;;31.70;5.70;;;;;;;7.72;100.00;100395.52;105916;1254;73091;-50
2023/04/20 02:02:01;;;;;;;30.00;5.20;;;;;;;7.71;100.00;100390.36;105627;1257;65866;-52
2023/04/20 02:04:33;;;;;;;36.30;5.10;;;;;;;7.70;100.00;100380.05;105747;1254;74323;-55
2023/04/20 02:07:02;;;;;;;31.10;4.90;;;;;;;7.69;100.00;100369.07;105928;1254;63297;-53
2023/04/20 02:09:30;;;;;;;27.40;5.10;;;;;;;7.68;100.00;100361.00;105936;1253;61643;-51
2023/04/20 02:11:58;;;;;;;23.70;4.70;;;;;;;7.66;100.00;100355.52;105858;1256;75184;-50
2023/04/20 02:14:27;;;;;;;31.40;6.10;;;;;;;7.65;100.00;100348.83;105914;1253;66073;-50
2023/04/20 02:16:55;;;;;;;42.80;5.50;;;;;;;7.63;100.00;100336.31;105929;1254;74084;-53
2023/04/20 02:19:24;;;;;;;27.60;4.70;;;;;;;7.62;100.00;100329.11;105905;1252;63287;-53
2023/04/20 02:21:52;;;;;;;37.00;5.00;;;;;;;7.61;100.00;100318.47;105796;1254;61755;-51
2023/04/20 02:24:20;;;;;;;30.60;5.40;;;;;;;7.59;100.00;100306.98;105814;1257;75153;-50
2023/04/20 02:26:49;;;;;;;25.90;4.70;;;;;;;7.59;100.00;100296.00;105953;1257;66347;-52
2023/04/20 02:29:17;;;;;;;30.70;5.00;;;;;;;7.58;100.00;100294.28;105921;1253;73937;-53
2023/04/20 02:31:46;;;;;;;30.90;4.90;;;;;;;7.57;100.00;100289.81;105924;1256;63275;-50
2023/04/20 02:34:16;;;;;;;44.90;5.40;;;;;;;7.57;100.00;100284.33;105948;1253;62107;-53
2023/04/20 02:36:44;;;;;;;21.70;4.10;;;;;;;7.57;100.00;100277.96;105941;1255;75224;-50
2023/04/20 02:39:13;;;;;;;40.90;5.20;;;;;;;7.57;100.00;100274.02;105903;1256;65940;-53
2023/04/20 02:41:41;;;;;;;30.10;4.90;;;;;;;7.57;100.00;100267.15;105845;1254;73886;-53
2023/04/20 02:44:10;;;;;;;28.00;4.80;;;;;;;7.56;100.00;100255.48;105824;1257;63539;-51
2023/04/20 02:46:39;;;;;;;23.70;4.90;;;;;;;7.56;100.00;100252.56;105935;1256;60849;-53
2023/04/20 02:49:08;;;;;;;28.70;4.40;;;;;;;7.55;100.00;100248.10;105935;1254;75159;-52
2023/04/20 02:51:40;;;;;;;24.70;4.50;;;;;;;7.54;100.00;100247.95;105938;1254;65917;-47
2023/04/20 02:54:09;;;;;;;22.70;4.30;;;;;;;7.54;100.00;100237.47;105858;1253;74252;-52
2023/04/20 02:56:37;;;;;;;23.00;3.80;;;;;;;7.53;100.00;100233.69;105959;1256;63238;-51
2023/04/20 02:59:08;;;;;;;24.20;4.60;;;;;;;7.52;100.00;100233.87;105920;1254;61586;-52
2023/04/20 03:01:56;;;;;;;24.90;4.20;;;;;;;7.51;100.00;100229.09;105919;1254;75323;-48
2023/04/20 03:04:26;;;;;;;19.20;4.10;;;;;;;7.51;100.00;100226.17;105935;1254;65188;-53
2023/04/20 03:09:57;;;;;;;18.60;3.70;;;;;;;7.52;100.00;100237.66;102745;1291;600400;-48
2023/04/20 03:12:46;;;;;;;14.90;3.60;;;;;;;7.52;100.00;100220.66;105021;1268;62246;-48
2023/04/20 03:15:35;;;;;;;21.00;3.80;;;;;;;7.53;100.00;100208.82;104863;1266;60686;-54
2023/04/20 03:18:12;;;;;;;22.30;4.10;;;;;;;7.53;100.00;100200.91;104829;1271;73915;-49
2023/04/20 03:20:40;;;;;;;18.90;4.20;;;;;;;7.52;100.00;100189.41;104837;1271;66065;-51
2023/04/20 03:23:09;;;;;;;23.40;4.20;;;;;;;7.52;100.00;100183.73;104771;1266;214491;-52
2023/04/20 03:25:38;;;;;;;20.40;4.40;;;;;;;7.52;100.00;100181.69;105199;1268;63482;-53
2023/04/20 03:28:27;;;;;;;21.10;4.30;;;;;;;7.52;100.00;100181.16;105220;1268;60891;-52
2023/04/20 03:30:55;;;;;;;24.70;4.90;;;;;;;7.53;100.00;100174.46;105212;1267;73473;-53
2023/04/20 03:33:25;;;;;;;25.10;4.40;;;;;;;7.53;100.00;100171.37;105047;1268;65158;-54
2023/04/20 03:35:54;;;;;;;21.30;4.60;;;;;;;7.55;100.00;100166.02;105191;1267;73992;-51
2023/04/20 03:38:22;;;;;;;24.40;4.90;;;;;;;7.56;100.00;100154.85;105216;1268;63511;-51
2023/04/20 03:40:52;;;;;;;28.40;4.10;;;;;;;7.57;100.00;100143.33;105184;1264;61582;-52
2023/04/20 03:43:21;;;;;;;24.90;4.30;;;;;;;7.57;100.00;100133.89;105195;1267;74334;-52
2023/04/20 03:45:49;;;;;;;20.70;3.80;;;;;;;7.57;100.00;100133.36;105015;1268;66233;-50
2023/04/20 03:48:18;;;;;;;22.20;4.20;;;;;;;7.57;100.00;100131.99;105626;1262;73867;-50
2023/04/20 03:50:47;;;;;;;26.20;4.10;;;;;;;7.57;100.00;100132.86;105631;1262;63267;-52
2023/04/20 03:53:16;;;;;;;24.20;5.30;;;;;;;7.58;100.00;100138.52;105615;1257;61874;-52
2023/04/20 03:55:45;;;;;;;22.90;3.90;;;;;;;7.58;100.00;100141.95;105618;1262;74920;-50
2023/04/20 03:58:16;;;;;;;26.50;4.70;;;;;;;7.59;100.00;100145.21;105544;1256;64819;-51
2023/04/20 04:01:08;;;;;;;20.30;4.30;;;;;;;7.59;100.00;100145.38;105584;1256;74046;-48
2023/04/20 04:03:38;;;;;;;21.40;3.80;;;;;;;7.59;100.00;100144.35;105640;1262;63139;-51
2023/04/20 04:06:09;;;;;;;22.40;4.70;;;;;;;7.60;100.00;100140.21;105634;1257;61493;-50
2023/04/20 04:08:38;;;;;;;24.80;4.30;;;;;;;7.60;100.00;100140.89;105625;1256;73839;-51
2023/04/20 04:11:06;;;;;;;27.40;4.70;;;;;;;7.62;100.00;100142.42;105667;1262;66380;-51
2023/04/20 04:13:35;;;;;;;20.50;4.30;;;;;;;7.62;100.00;100138.13;105528;1262;73518;-49
2023/04/20 04:16:05;;;;;;;27.80;5.20;;;;;;;7.63;100.00;100137.42;105609;1262;63232;-52
2023/04/20 04:18:34;;;;;;;31.60;5.20;;;;;;;7.64;100.00;100133.47;105789;1253;61767;-50
2023/04/20 04:21:09;;;;;;;33.20;4.80;;;;;;;7.66;100.00;100129.14;105861;1256;74347;-51
2023/04/20 04:23:38;;;;;;;29.30;4.70;;;;;;;7.67;100.00;100124.84;105892;1257;66150;-49
2023/04/20 04:26:26;;;;;;;29.70;5.40;;;;;;;7.69;100.00;100127.90;105621;1253;72090;-52
2023/04/20 04:28:55;;;;;;;20.50;4.40;;;;;;;7.71;100.00;100127.55;105882;1257;62642;-53
2023/04/20 04:31:24;;;;;;;24.40;4.40;;;;;;;7.71;100.00;100128.23;105816;1254;60559;-49
2023/04/20 04:33:53;;;;;;;27.70;4.50;;;;;;;7.73;100.00;100129.41;105853;1258;73405;-49
2023/04/20 04:36:44;;;;;;;27.30;5.30;;;;;;;7.75;100.00;100127.84;105919;1259;66065;-51
2023/04/20 04:39:15;;;;;;;19.10;4.20;;;;;;;7.77;100.00;100121.30;105826;1254;73549;-51
2023/04/20 04:41:50;;;;;;;;;;;;;;;7.78;100.00;100119.74;105798;1252;62856;-48
2023/04/20 04:44:30;;;;;;;23.60;4.60;;;;;;;7.79;100.00;100112.51;105956;1257;61401;-49
2023/04/20 04:47:01;;;;;;;16.00;4.00;;;;;;;7.80;100.00;100117.98;105875;1259;73529;-53
2023/04/20 04:49:31;;;;;;;17.30;4.50;;;;;;;7.83;100.00;100119.15;105920;1258;66165;-52
2023/04/20 04:52:00;;;;;;;31.70;4.60;;;;;;;7.85;100.00;100109.01;105898;1254;73205;-52
2023/04/20 04:54:28;;;;;;;20.50;4.20;;;;;;;7.85;100.00;100102.99;105897;1266;63430;-51
2023/04/20 04:56:57;;;;;;;19.90;3.90;;;;;;;7.86;100.00;100111.56;105936;1255;61576;-51
2023/04/20 04:59:25;;;;;;;21.80;4.30;;;;;;;7.87;100.00;100113.61;105875;1266;74515;-51
2023/04/20 05:01:53;;;;;;;27.30;4.00;;;;;;;7.90;100.00;100110.13;105910;1258;66060;-50
2023/04/20 05:04:22;;;;;;;16.20;3.80;;;;;;;7.92;100.00;100108.22;105899;1253;73884;-53
2023/04/20 05:06:51;;;;;;;18.20;4.00;;;;;;;7.96;100.00;100113.67;105896;1256;63283;-49
2023/04/20 05:09:19;;;;;;;22.20;4.20;;;;;;;7.98;100.00;100118.11;105639;1254;61424;-50
2023/04/20 05:11:48;;;;;;;25.70;4.30;;;;;;;8.00;100.00;100113.27;105645;1254;74557;-53
2023/04/20 05:14:17;;;;;;;17.90;3.80;;;;;;;8.02;100.00;100109.81;105911;1265;66121;-53
2023/04/20 05:16:45;;;;;;;20.40;4.20;;;;;;;8.05;100.00;100104.95;105859;1253;73961;-54
2023/04/20 05:19:14;;;;;;;17.20;3.90;;;;;;;8.07;100.00;100101.14;105855;1259;63421;-51
2023/04/20 05:21:42;;;;;;;26.10;3.80;;;;;;;8.09;100.00;100099.58;105910;1254;61547;-49
2023/04/20 05:24:11;;;;;;;19.40;3.60;;;;;;;8.12;100.00;100100.05;105889;1257;74583;-51
2023/04/20 05:26:40;;;;;;;18.90;3.90;;;;;;;8.16;100.00;100098.95;105879;1253;66221;-51
2023/04/20 05:29:08;;;;;;;13.50;3.70;;;;;;;8.20;100.00;100093.91;105749;1257;74039;-52
2023/04/20 05:31:37;;;;;;;15.30;3.30;;;;;;;8.24;100.00;100094.39;105672;1257;62649;-46
2023/04/20 05:34:05;;;;;;;15.20;3.40;;;;;;;8.27;100.00;100090.23;105801;1257;61590;-54
2023/04/20 05:36:34;;;;;;;10.80;3.10;;;;;;;8.31;100.00;100090.33;105910;1257;74352;-53
2023/04/20 05:39:03;;;;;;;15.00;3.40;;;;;;;8.34;100.00;100088.22;105844;1256;65940;-53
2023/04/20 05:41:32;;;;;;;15.00;3.50;;;;;;;8.38;100.00;100086.96;105854;1253;74116;-50
2023/04/20 05:44:01;;;;;;;15.80;3.40;;;;;;;8.40;100.00;100085.05;105889;1257;63387;-48
2023/04/20 05:46:30;;;;;;;14.00;3.90;;;;;;;8.41;100.00;100084.67;105853;1257;61601;-50
2023/04/20 05:48:58;;;;;;;8.20;2.70;;;;;;;8.42;100.00;100082.95;105826;1256;75010;-47
2023/04/20 05:51:31;;;;;;;12.90;3.30;;;;;;;8.43;100.00;100086.53;105855;1257;65898;-51
2023/04/20 05:54:00;;;;;;;10.40;3.20;;;;;;;8.45;100.00;100084.95;105843;1258;74225;-49
2023/04/20 05:56:29;;;;;;;18.50;3.50;;;;;;;8.44;100.00;100085.30;105840;1254;63531;-53
2023/04/20 05:58:57;;;;;;;9.70;2.80;;;;;;;8.46;100.00;100087.85;105839;1253;61671;-52
2023/04/20 06:01:26;;;;;;;10.40;2.70;;;;;;;8.48;100.00;100091.10;105820;1257;74608;-53
2023/04/20 06:03:54;;;;;;;14.10;2.70;;;;;;;8.49;100.00;100089.39;105857;1257;65907;-50
2023/04/20 06:06:24;;;;;;;8.50;2.40;;;;;;;8.49;100.00;100089.73;105846;1257;73907;-50
2023/04/20 06:08:53;;;;;;;13.10;2.50;;;;;;;8.49;100.00;100091.80;105858;1258;63528;-50
2023/04/20 06:11:22;;;;;;;12.30;3.00;;;;;;;8.51;100.00;100091.10;105850;1257;61797;-49
2023/04/20 06:13:50;;;;;;;12.60;3.10;;;;;;;8.52;100.00;100092.45;105872;1254;74398;-52
2023/04/20 06:16:19;;;;;;;9.80;3.10;;;;;;;8.53;100.00;100094.32;105860;1257;66170;-51
2023/04/20 06:18:48;;;;;;;9.80;2.80;;;;;;;8.54;100.00;100093.11;105860;1257;72895;-51
2023/04/20 06:21:16;;;;;;;7.20;2.60;;;;;;;8.54;100.00;100090.70;105871;1258;62795;-52
2023/04/20 06:23:45;;;;;;;11.60;2.80;;;;;;;8.54;100.00;100092.25;105871;1253;61562;-51
2023/04/20 06:26:13;;;;;;;12.40;2.90;;;;;;;8.55;100.00;100088.27;105900;1264;74454;-53
2023/04/20 06:28:42;;;;;;;14.90;3.50;;;;;;;8.56;100.00;100085.84;105930;1258;66121;-54
2023/04/20 06:31:10;;;;;;;15.50;3.60;;;;;;;8.59;100.00;100083.57;105886;1257;74206;-55
2023/04/20 06:33:39;;;;;;;14.30;3.70;;;;;;;8.62;100.00;100081.63;105877;1257;63413;-53
2023/04/20 06:36:08;;;;;;;16.00;3.90;;;;;;;8.65;100.00;100083.30;105881;1259;61151;-49
2023/04/20 06:38:36;;;;;;;10.20;3.80;;;;;;;8.68;100.00;100079.11;105916;1256;74834;-48
2023/04/20 06:41:04;;;;;;;15.80;4.50;;;;;;;8.71;100.00;100077.86;105900;1257;66134;-52
2023/04/20 06:43:33;;;;;;;16.10;5.00;;;;;;;8.75;100.00;100078.84;105859;1258;74034;-50
2023/04/20 06:46:01;;;;;;;12.80;4.10;;;;;;;8.79;100.00;100078.59;105891;1258;63230;-51
2023/04/20 06:48:30;;;;;;;13.60;3.60;;;;;;;8.82;100.00;100079.91;105915;1253;61763;-50
2023/04/20 06:51:00;;;;;;;14.60;3.40;;;;;;;8.86;100.00;100076.77;105921;1257;74260;-52
2023/04/20 06:53:29;;;;;;;7.60;3.30;;;;;;;8.89;100.00;100075.15;105900;1257;66142;-52
2023/04/20 06:55:57;;;;;;;10.80;3.10;;;;;;;8.94;100.00;100071.45;105959;1257;74373;-52
2023/04/20 06:58:25;;;;;;;12.20;3.30;;;;;;;8.98;100.00;100073.97;105861;1256;62525;-52
2023/04/20 07:00:54;;;;;;;8.50;3.20;;;;;;;9.02;100.00;100072.35;105910;1257;62120;-48
2023/04/20 07:03:23;;;;;;;11.40;3.00;;;;;;;9.07;100.00;100072.24;105857;1254;74722;-53
2023/04/20 07:05:51;;;;;;;8.50;3.00;;;;;;;9.12;100.00;100069.41;105879;1257;65175;-50
2023/04/20 07:19:02;;;;;;;11.00;3.20;;;;;;;9.35;100.00;100076.55;102642;1295;600997;-52
2023/04/20 07:21:32;;;;;;;10.50;3.40;;;;;;;9.39;100.00;100063.23;104898;1273;62728;-50
2023/04/20 07:24:00;;;;;;;9.50;3.90;;;;;;;9.41;100.00;100063.35;104825;1266;61871;-52
2023/04/20 07:26:30;;;;;;;8.40;3.70;;;;;;;9.44;100.00;100064.84;104901;1266;72813;-50
2023/04/20 07:28:58;;;;;;;11.50;3.50;;;;;;;9.47;100.00;100062.73;104844;1270;66088;-48
2023/04/20 07:31:26;;;;;;;13.80;4.20;;;;;;;9.50;100.00;100062.84;104899;1271;74172;-48
2023/04/20 07:33:55;;;;;;;25.90;4.10;;;;;;;9.52;100.00;100061.42;104939;1268;62106;-49
2023/04/20 07:36:23;;;;;;;18.60;5.20;;;;;;;9.51;100.00;100064.89;105141;1264;61581;-49
2023/04/20 07:38:52;;;;;;;13.30;4.50;;;;;;;9.52;100.00;100068.11;105170;1264;73064;-48
2023/04/20 07:41:21;;;;;;;15.90;4.20;;;;;;;9.54;100.00;100069.99;105176;1268;65901;-49
2023/04/20 07:43:50;;;;;;;13.30;4.30;;;;;;;9.54;100.00;100068.27;105164;1269;73014;-47
2023/04/20 07:46:20;;;;;;;9.50;4.00;;;;;;;9.54;100.00;100070.52;105124;1268;63676;-51
2023/04/20 07:48:48;;;;;;;15.10;3.20;;;;;;;9.54;100.00;100075.86;105115;1268;61653;-51
2023/04/20 07:51:16;;;;;;;14.90;3.90;;;;;;;9.54;100.00;100070.86;105145;1264;74400;-50
2023/04/20 07:53:45;;;;;;;20.50;3.70;;;;;;;9.53;100.00;100076.73;105095;1268;65894;-46
2023/04/20 07:56:13;;;;;;;24.70;6.00;;;;;;;9.55;100.00;100075.66;105148;1269;74131;-50
2023/04/20 07:58:42;;;;;;;14.80;4.30;;;;;;;9.57;100.00;100076.82;105090;1270;63332;-52
2023/04/20 08:01:10;;;;;;;10.60;3.20;;;;;;;9.59;100.00;100074.02;105099;1264;61547;-52
2023/04/20 08:03:40;;;;;;;14.40;3.20;;;;;;;9.61;100.00;100076.23;105123;1264;75019;-48
2023/04/20 08:06:09;;;;;;;11.30;3.30;;;;;;;9.62;100.00;100073.29;105117;1270;65625;-50
2023/04/20 08:08:37;;;;;;;17.40;3.00;;;;;;;9.60;100.00;100082.78;105183;1264;72788;-50
2023/04/20 08:11:07;;;;;;;14.00;3.60;;;;;;;9.57;100.00;100080.24;105121;1267;63485;-48
2023/04/20 08:13:36;;;;;;;18.50;3.60;;;;;;;9.55;100.00;100075.30;105171;1269;61257;-48
2023/04/20 08:16:06;;;;;;;8.20;3.00;;;;;;;9.48;100.00;100077.16;105488;1257;74300;-51
2023/04/20 08:18:35;;;;;;;18.00;3.50;;;;;;;9.44;100.00;100077.75;105309;1262;66203;-52
2023/04/20 08:21:03;;;;;;;10.80;3.20;;;;;;;9.42;100.00;100081.08;105193;1261;74280;-53
2023/04/20 08:23:31;;;;;;;10.40;3.30;;;;;;;9.42;100.00;100085.55;105364;1263;63213;-50
2023/04/20 08:26:00;;;;;;;14.10;2.90;;;;;;;9.41;100.00;100082.96;105523;1257;61692;-53
2023/04/20 08:28:29;;;;;;;14.20;3.20;;;;;;;9.40;100.00;100086.11;105489;1261;74501;-52
2023/04/20 08:31:01;;;;;;;9.70;3.10;;;;;;;9.38;100.00;100084.59;105478;1263;66201;-48
2023/04/20 08:33:29;;;;;;;18.50;4.20;;;;;;;9.37;100.00;100087.02;105500;1271;74064;-49
2023/04/20 08:35:58;;;;;;;16.90;4.30;;;;;;;9.33;100.00;100075.89;105459;1264;63170;-49
2023/04/20 08:38:26;;;;;;;22.50;4.90;;;;;;;9.29;100.00;100080.30;105506;1258;61668;-48
2023/04/20 08:41:01;;;;;;;16.00;4.10;;;;;;;9.26;100.00;100079.31;105481;1262;74320;-52
2023/04/20 08:43:30;;;;;;;16.10;4.00;;;;;;;9.26;100.00;100077.59;105520;1264;65923;-51
2023/04/20 08:46:00;;;;;;;26.20;5.30;;;;;;;9.28;100.00;100079.46;105562;1264;73369;-48
2023/04/20 08:48:36;;;;;;;23.60;5.70;;;;;;;9.30;100.00;100078.38;105540;1258;62596;-48
2023/04/20 08:51:04;;;;;;;22.50;4.80;;;;;;;9.31;100.00;100079.91;105546;1257;61549;-51
2023/04/20 08:53:33;;;;;;;23.90;5.30;;;;;;;9.29;100.00;100083.21;105564;1257;73742;-48
2023/04/20 08:56:01;;;;;;;19.40;4.10;;;;;;;9.26;100.00;100085.00;105552;1263;65000;-50
2023/04/20 08:58:31;;;;;;;28.10;4.50;;;;;;;9.25;100.00;100086.90;105520;1264;74180;-48
2023/04/20 09:01:00;;;;;;;23.90;4.50;;;;;;;9.22;100.00;100090.23;105507;1261;63342;-49
2023/04/20 09:03:33;;;;;;;24.20;4.70;;;;;;;9.19;100.00;100091.63;105560;1257;60637;-51
2023/04/20 09:06:03;;;;;;;22.60;4.40;;;;;;;9.18;100.00;100095.11;105531;1258;74499;-50
2023/04/20 09:08:39;;;;;;;34.00;5.70;;;;;;;9.17;100.00;100093.77;105543;1262;65209;-50
2023/04/20 09:11:19;;;;;;;;;;;;;;;9.11;100.00;100094.74;105532;1262;74178;-50
2023/04/20 09:14:01;;;;;;;24.20;4.40;;;;;;;9.07;100.00;100089.98;105463;1262;63414;-49
2023/04/20 09:16:30;;;;;;;31.50;5.40;;;;;;;9.01;100.00;100095.26;105529;1257;60941;-50
2023/04/20 09:18:59;;;;;;;27.00;5.50;;;;;;;8.99;100.00;100098.91;105471;1264;74019;-49
2023/04/20 09:21:27;;;;;;;40.20;5.80;;;;;;;8.96;100.00;100099.48;105505;1263;66360;-49
2023/04/20 09:23:57;;;;;;;36.10;5.80;;;;;;;8.94;100.00;100105.52;105500;1257;74169;-51
2023/04/20 09:26:26;;;;;;;32.00;5.80;;;;;;;8.90;100.00;100105.08;105539;1258;62204;-47
2023/04/20 09:28:54;;;;;;;28.00;5.40;;;;;;;8.82;100.00;100106.25;105513;1261;60575;-49
2023/04/20 09:31:22;;;;;;;26.50;5.50;;;;;;;8.75;100.00;100103.61;105515;1262;74527;-48
2023/04/20 09:33:58;;;;;;;26.90;6.30;;;;;;;8.72;100.00;100105.38;105535;1261;65869;-50
2023/04/20 09:36:46;;;;;;;25.60;4.70;;;;;;;8.68;100.00;100103.37;105468;1257;73884;-49
2023/04/20 09:39:19;;;;;;;38.30;5.30;;;;;;;8.65;100.00;100103.43;105434;1258;63186;-50
2023/04/20 09:41:49;;;;;;;34.30;5.10;;;;;;;8.61;100.00;100101.25;105550;1258;61630;-48
2023/04/20 09:44:18;;;;;;;37.70;7.10;;;;;;;8.60;100.00;100101.11;105570;1258;74010;-50
2023/04/20 09:46:46;;;;;;;39.10;7.00;;;;;;;8.58;100.00;100099.40;105607;1260;63930;-49
2023/04/20 09:49:15;;;;;;;27.70;5.50;;;;;;;8.58;100.00;100100.95;105561;1257;73928;-52
2023/04/20 09:51:44;;;;;;;38.00;5.40;;;;;;;8.55;100.00;100102.72;105607;1258;62823;-51
2023/04/20 09:54:12;;;;;;;41.00;5.40;;;;;;;8.54;100.00;100105.84;105564;1258;61831;-49
2023/04/20 09:56:42;;;;;;;36.60;4.50;;;;;;;8.53;100.00;100104.48;105748;1254;73854;-51
2023/04/20 09:59:11;;;;;;;44.60;5.80;;;;;;;8.52;100.00;100107.77;105715;1254;65870;-49
2023/04/20 10:01:39;;;;;;;39.50;5.20;;;;;;;8.49;100.00;100107.10;105683;1253;73154;-48
2023/04/20 10:04:13;;;;;;;36.80;5.00;;;;;;;8.45;100.00;100108.86;105685;1257;63268;-49
2023/04/20 10:06:56;;;;;;;43.00;4.30;;;;;;;8.36;100.00;100113.64;105771;1260;61511;-47
2023/04/20 10:09:25;;;;;;;26.00;3.80;;;;;;;8.27;100.00;100122.53;105668;1253;74568;-48
2023/04/20 10:12:04;;;;;;;30.60;4.20;;;;;;;8.20;100.00;100127.10;105696;1256;65257;-47
2023/04/20 10:14:34;;;;;;;26.10;4.30;;;;;;;8.19;100.00;100121.95;105710;1257;72155;-47
2023/04/20 10:17:07;;;;;;;20.20;4.00;;;;;;;8.17;100.00;100125.41;105770;1254;63227;-47
2023/04/20 10:19:43;;;;;;;30.60;3.70;;;;;;;8.20;100.00;100131.39;105705;1254;60564;-47
2023/04/20 10:22:13;;;;;;;21.40;4.10;;;;;;;8.22;100.00;100131.20;105784;1257;74499;-49
2023/04/20 10:24:42;;;;;;;25.10;3.70;;;;;;;8.25;100.00;100137.02;105698;1258;66317;-49
2023/04/20 10:27:17;;;;;;;24.50;3.00;;;;;;;8.26;100.00;100134.59;105698;1254;74503;-48
2023/04/20 10:29:45;;;;;;;19.50;3.30;;;;;;;8.26;100.00;100136.65;105661;1257;62251;-48
2023/04/20 10:32:27;;;;;;;13.60;2.80;;;;;;;8.30;100.00;100138.98;109482;1253;61386;-47
2023/04/20 10:35:01;;;;;;;17.10;3.00;;;;;;;8.33;100.00;100138.09;109492;1253;73720;-47
2023/04/20 10:37:30;;;;;;;16.30;3.10;;;;;;;8.31;100.00;100144.65;109476;1253;65385;-47
2023/04/20 10:39:59;;;;;;;17.20;3.90;;;;;;;8.28;100.00;100142.98;109483;1253;72338;-50
2023/04/20 10:42:30;;;;;;;20.10;3.40;;;;;;;8.26;100.00;100146.27;109515;1253;62459;-49
2023/04/20 10:44:58;;;;;;;19.40;3.20;;;;;;;8.23;100.00;100149.41;109510;1253;60269;-50
2023/04/20 10:47:31;;;;;;;15.20;2.60;;;;;;;8.21;100.00;100157.52;109492;1253;73623;-49
2023/04/20 10:50:15;;;;;;;16.70;3.10;;;;;;;8.23;100.00;100150.96;109534;1253;65556;-52
2023/04/20 10:52:43;;;;;;;17.10;2.70;;;;;;;8.24;100.00;100160.41;109493;1253;72625;-52
2023/04/20 10:55:19;;;;;;;12.20;2.40;;;;;;;8.29;100.00;100151.57;109451;1253;63057;-48
2023/04/20 10:57:47;;;;;;;22.60;3.20;;;;;;;8.27;100.00;100154.17;109504;1253;60056;-47
2023/04/20 11:00:17;;;;;;;14.20;2.90;;;;;;;8.24;100.00;100161.27;109450;1253;73394;-51
2023/04/20 11:02:49;;;;;;;17.00;2.20;;;;;;;8.20;100.00;100158.89;109483;1253;65578;-51
2023/04/20 11:05:18;;;;;;;16.40;2.60;;;;;;;8.16;100.00;100159.64;109492;1253;73597;-50
2023/04/20 11:07:54;;;;;;;10.60;2.20;;;;;;;8.14;100.00;100165.00;109475;1253;61710;-50
2023/04/20 11:10:37;;;;;;;11.20;2.00;;;;;;;8.15;100.00;100155.70;109473;1253;59955;-51
2023/04/20 11:13:06;;;;;;;9.60;2.50;;;;;;;8.11;100.00;100167.27;109515;1253;73994;-52
2023/04/20 11:18:32;;;;;;;10.50;1.90;;;;;;;8.08;100.00;100177.27;102712;1294;600250;-49
2023/04/20 11:21:00;;;;;;;18.10;2.90;;;;;;;8.08;100.00;100169.52;105151;1268;63432;-49
2023/04/20 11:23:36;;;;;;;18.50;2.90;;;;;;;8.09;100.00;100170.38;105189;1264;61632;-53
2023/04/20 11:26:05;;;;;;;11.80;2.90;;;;;;;8.08;100.00;100171.60;105197;1264;73174;-57
2023/04/20 11:28:33;;;;;;;12.70;2.70;;;;;;;8.11;100.00;100168.48;104939;1264;66198;-48
2023/04/20 11:31:02;;;;;;;20.80;3.10;;;;;;;8.15;100.00;100161.89;104780;1264;287880;-52
2023/04/20 11:33:33;;;;;;;15.10;3.10;;;;;;;8.17;100.00;100166.32;105266;1267;62559;-49
2023/04/20 11:36:01;;;;;;;17.40;2.80;;;;;;;8.19;100.00;100164.23;105249;1267;60573;-51
2023/04/20 11:38:31;;;;;;;17.60;2.90;;;;;;;8.22;100.00;100165.93;105254;1266;73683;-49